Time;durP1;ratioP1;P1;durP2;ratioP2;P2;SDS_P1;SDS_P2;PMS_P1;PMS_P2;Temp;Humidity;BMP_temperature;BMP_pressure;BME280_temperature;BME280_humidity;BME280_pressure;Samples;Min_cycle;Max_cycle;Signal;HPM_P1;HPM_P2
2023/04/02 00:01:21;;;;;;;;;;;3.50;99.90;;;;;;5113930;28;20052;-67
2023/04/02 00:03:58;;;;;;;;;;;3.50;99.90;;;;;;5113519;28;20289;-67
2023/04/02 00:06:31;;;;;;;;;;;3.40;99.90;;;;;;5113740;28;19924;-68
2023/04/02 00:09:01;;;;;;;;;;;3.40;99.90;;;;;;5113824;28;20007;-67
2023/04/02 00:11:33;;;;;;;;;;;3.30;99.90;;;;;;5113332;28;19931;-73
2023/04/02 00:14:00;;;;;;;;;;;3.20;99.90;;;;;;5113784;28;19924;-67
2023/04/02 00:16:26;;;;;;;;;;;3.30;99.90;;;;;;5112871;28;19923;-73
2023/04/02 00:18:54;;;;;;;;;;;3.20;99.90;;;;;;5113891;28;19927;-66
2023/04/02 00:21:22;;;;;;;;;;;3.10;99.90;;;;;;5113542;28;19954;-66
2023/04/02 00:23:49;;;;;;;;;;;3.10;99.90;;;;;;5113177;28;19920;-67
2023/04/02 00:26:29;;;;;;;;;;;3.10;99.90;;;;;;5113540;28;19927;-67
2023/04/02 00:28:54;;;;;;;;;;;3.00;99.90;;;;;;5112470;28;20007;-66
2023/04/02 00:31:20;;;;;;;;;;;3.00;99.90;;;;;;5095229;28;19931;-67
2023/04/02 00:33:47;;;;;;;;;;;3.00;99.90;;;;;;5112989;28;20285;-66
2023/04/02 00:36:12;;;;;;;;;;;3.00;99.90;;;;;;5113333;28;19978;-67
2023/04/02 00:38:42;;;;;;;;;;;2.90;99.90;;;;;;5112632;28;20377;-67
2023/04/02 00:41:12;;;;;;;;;;;2.90;99.90;;;;;;5113185;28;19954;-65
2023/04/02 00:43:38;;;;;;;;;;;3.10;99.90;;;;;;5094815;28;19931;-67
2023/04/02 00:46:09;;;;;;;;;;;2.90;99.90;;;;;;5113188;28;19931;-69
2023/04/02 00:48:38;;;;;;;;;;;2.80;99.90;;;;;;5077889;28;20018;-67
2023/04/02 00:51:11;;;;;;;;;;;2.80;99.90;;;;;;5094967;28;19928;-70
2023/04/02 00:53:37;;;;;;;;;;;2.80;99.90;;;;;;5112536;28;20280;-67
2023/04/02 00:56:11;;;;;;;;;;;2.80;99.90;;;;;;5112934;28;20381;-66
2023/04/02 00:58:37;;;;;;;;;;;2.80;99.90;;;;;;5112568;28;19927;-67
2023/04/02 01:01:03;;;;;;;;;;;2.80;99.90;;;;;;5094630;28;19924;-65
2023/04/02 01:03:34;;;;;;;;;;;2.60;99.90;;;;;;5112558;28;19928;-66
2023/04/02 01:06:09;;;;;;;;;;;2.70;99.90;;;;;;5094815;28;19967;-66
2023/04/02 01:08:35;;;;;;;;;;;2.70;99.90;;;;;;5112500;28;20014;-72
2023/04/02 01:11:12;;;;;;;;;;;2.70;99.90;;;;;;5112670;28;20340;-66
2023/04/02 01:13:40;;;;;;;;;;;2.60;99.90;;;;;;5112129;28;20288;-64
2023/04/02 01:16:37;;;;;;;;;;;2.60;99.90;;;;;;5112605;28;19924;-65
2023/04/02 01:19:03;;;;;;;;;;;2.50;99.90;;;;;;5112640;28;19924;-66
2023/04/02 01:21:31;;;;;;;;;;;2.50;99.90;;;;;;5094160;28;19931;-66
2023/04/02 01:24:04;;;;;;;;;;;2.50;99.90;;;;;;5112288;28;19927;-67
2023/04/02 01:26:35;;;;;;;;;;;2.50;99.90;;;;;;5094487;28;20359;-66
2023/04/02 01:29:07;;;;;;;;;;;2.40;99.90;;;;;;5112540;28;19928;-66
2023/04/02 01:31:33;;;;;;;;;;;2.40;99.90;;;;;;5112348;28;19923;-67
2023/04/02 01:33:59;;;;;;;;;;;2.40;99.90;;;;;;5111923;28;19973;-66
2023/04/02 01:36:30;;;;;;;;;;;2.30;99.90;;;;;;5111932;28;20078;-66
2023/04/02 01:39:15;;;;;;;;;;;2.30;99.90;;;;;;5095210;28;20495;-67
2023/04/02 01:41:46;;;;;;;;;;;2.30;99.90;;;;;;5118648;28;19931;-67
2023/04/02 01:44:16;;;;;;;;;;;2.30;99.90;;;;;;5119088;28;19927;-66
2023/04/02 01:46:43;;;;;;;;;;;2.30;99.90;;;;;;5118851;28;19924;-66
2023/04/02 01:49:20;;;;;;;;;;;2.30;99.90;;;;;;5101322;28;19923;-67
2023/04/02 01:51:50;;;;;;;;;;;2.20;99.90;;;;;;5118545;28;19969;-66
2023/04/02 01:54:16;;;;;;;;;;;2.20;99.90;;;;;;5119119;28;19931;-66
2023/04/02 01:56:43;;;;;;;;;;;2.20;99.90;;;;;;5118426;28;19923;-73
2023/04/02 01:59:10;;;;;;;;;;;2.10;99.90;;;;;;5100754;28;20429;-67
2023/04/02 02:01:40;;;;;;;;;;;2.10;99.90;;;;;;5118937;28;19924;-67
2023/04/02 02:04:06;;;;;;;;;;;2.00;99.90;;;;;;5118540;28;19923;-67
2023/04/02 02:06:31;;;;;;;;;;;2.00;99.90;;;;;;5119026;28;19993;-67
2023/04/02 02:08:59;;;;;;;;;;;2.00;99.90;;;;;;5100480;28;19923;-67
2023/04/02 02:11:26;;;;;;;;;;;2.10;99.90;;;;;;5118960;28;19930;-67
2023/04/02 02:13:59;;;;;;;;;;;2.00;99.90;;;;;;5118532;28;19924;-66
2023/04/02 02:16:28;;;;;;;;;;;1.90;99.90;;;;;;5118672;28;20272;-66
2023/04/02 02:18:59;;;;;;;;;;;1.90;99.90;;;;;;5118596;28;20022;-67
2023/04/02 02:21:31;;;;;;;;;;;1.90;99.90;;;;;;5119090;28;19976;-68
2023/04/02 02:23:57;;;;;;;;;;;1.80;99.90;;;;;;5100252;28;20234;-66
2023/04/02 02:26:25;;;;;;;;;;;1.90;99.90;;;;;;5099957;28;20257;-66
2023/04/02 02:28:54;;;;;;;;;;;1.80;99.90;;;;;;5118241;28;19930;-66
2023/04/02 02:31:26;;;;;;;;;;;1.80;99.90;;;;;;5100736;28;19927;-67
2023/04/02 02:33:56;;;;;;;;;;;1.80;99.90;;;;;;5100150;28;20353;-66
2023/04/02 02:36:32;;;;;;;;;;;1.80;99.90;;;;;;5100281;28;19924;-66
2023/04/02 02:39:16;;;;;;;;;;;1.70;99.90;;;;;;5117806;28;19972;-66
2023/04/02 02:41:48;;;;;;;;;;;1.70;99.90;;;;;;5118559;28;19923;-65
2023/04/02 02:44:33;;;;;;;;;;;1.70;99.90;;;;;;5118671;28;19924;-65
2023/04/02 02:47:01;;;;;;;;;;;1.70;99.90;;;;;;5117079;28;19938;-66
2023/04/02 02:49:29;;;;;;;;;;;1.60;99.90;;;;;;5118562;28;19927;-66
2023/04/02 02:51:57;;;;;;;;;;;1.60;99.90;;;;;;5096398;28;19928;-67
2023/04/02 02:54:24;;;;;;;;;;;1.60;99.90;;;;;;5096559;28;20365;-66
2023/04/02 02:56:53;;;;;;;;;;;1.60;99.90;;;;;;5096918;28;20296;-71
2023/04/02 02:59:19;;;;;;;;;;;1.60;99.90;;;;;;5096735;28;20014;-67
2023/04/02 03:01:46;;;;;;;;;;;1.60;99.90;;;;;;5096883;28;20240;-66
2023/04/02 03:04:12;;;;;;;;;;;1.60;99.90;;;;;;5114619;28;20465;-66
2023/04/02 03:06:39;;;;;;;;;;;1.50;99.90;;;;;;5115011;28;19971;-66
2023/04/02 03:09:14;;;;;;;;;;;1.50;99.90;;;;;;5114562;28;19931;-66
2023/04/02 03:11:46;;;;;;;;;;;1.50;99.90;;;;;;5097041;28;19935;-66
2023/04/02 03:14:29;;;;;;;;;;;1.50;99.90;;;;;;5096235;28;20044;-66
2023/04/02 03:16:59;;;;;;;;;;;1.50;99.90;;;;;;5095978;28;20292;-66
2023/04/02 03:19:25;;;;;;;;;;;1.40;99.90;;;;;;5114703;28;19924;-65
2023/04/02 03:21:50;;;;;;;;;;;1.40;99.90;;;;;;5096620;28;19931;-67
2023/04/02 03:24:27;;;;;;;;;;;1.40;99.90;;;;;;5114402;28;19923;-67
2023/04/02 03:27:00;;;;;;;;;;;1.40;99.90;;;;;;5114671;28;19924;-72
2023/04/02 03:29:28;;;;;;;;;;;1.30;99.90;;;;;;5114891;28;19984;-66
2023/04/02 03:31:56;;;;;;;;;;;1.40;99.90;;;;;;5096395;28;19928;-72
2023/04/02 03:34:34;;;;;;;;;;;1.40;99.90;;;;;;5114433;28;19942;-66
2023/04/02 03:37:16;;;;;;;;;;;1.40;99.90;;;;;;5113693;28;19973;-66
2023/04/02 03:39:54;;;;;;;;;;;1.30;99.90;;;;;;5114172;28;19923;-66
2023/04/02 03:42:20;;;;;;;;;;;1.30;99.90;;;;;;5114403;28;19954;-65
2023/04/02 03:44:57;;;;;;;;;;;1.30;99.90;;;;;;5096004;28;19924;-66
2023/04/02 03:47:46;;;;;;;;;;;1.30;99.90;;;;;;5114103;28;19969;-66
2023/04/02 03:50:11;;;;;;;;;;;1.30;99.90;;;;;;5099721;28;20022;-66
2023/04/02 03:52:37;;;;;;;;;;;1.30;99.90;;;;;;5114010;28;19959;-66
2023/04/02 03:55:14;;;;;;;;;;;1.20;99.90;;;;;;5095292;28;20001;-68
2023/04/02 03:57:46;;;;;;;;;;;1.20;99.90;;;;;;5114043;28;20296;-66
2023/04/02 04:00:15;;;;;;;;;;;1.20;99.90;;;;;;5113637;28;20033;-66
2023/04/02 04:02:46;;;;;;;;;;;1.20;99.90;;;;;;5113818;28;20261;-66
2023/04/02 04:05:27;;;;;;;;;;;1.20;99.90;;;;;;5113458;28;19932;-68
2023/04/02 04:07:54;;;;;;;;;;;1.20;99.90;;;;;;5095961;28;19981;-66
2023/04/02 04:10:23;;;;;;;;;;;1.20;99.90;;;;;;5113467;28;20372;-67
2023/04/02 04:12:50;;;;;;;;;;;1.10;99.90;;;;;;5113557;28;19931;-67
2023/04/02 04:15:18;;;;;;;;;;;1.10;99.90;;;;;;5113011;28;20018;-66
2023/04/02 04:18:03;;;;;;;;;;;1.10;99.90;;;;;;5095614;28;19928;-67
2023/04/02 04:20:33;;;;;;;;;;;1.10;99.90;;;;;;5113621;28;20399;-67
2023/04/02 04:23:09;;;;;;;;;;;1.10;99.90;;;;;;5113594;28;19979;-67
2023/04/02 04:25:35;;;;;;;;;;;1.10;99.90;;;;;;5113194;28;19928;-66
2023/04/02 04:28:07;;;;;;;;;;;1.10;99.90;;;;;;5113378;28;19979;-72
2023/04/02 04:30:53;;;;;;;;;;;1.10;99.90;;;;;;5113354;28;20003;-66
2023/04/02 04:33:24;;;;;;;;;;;1.00;99.90;;;;;;5094355;28;20296;-69
2023/04/02 04:36:00;;;;;;;;;;;1.10;99.90;;;;;;5112599;28;19927;-67
2023/04/02 04:38:26;;;;;;;;;;;1.00;99.90;;;;;;5112740;28;19924;-66
2023/04/02 04:41:10;;;;;;;;;;;1.10;99.90;;;;;;5113297;28;19931;-68
2023/04/02 04:43:39;;;;;;;;;;;1.00;99.90;;;;;;5112941;28;19975;-66
2023/04/02 04:46:07;;;;;;;;;;;1.00;99.90;;;;;;5112764;28;19924;-73
2023/04/02 04:48:33;;;;;;;;;;;1.00;99.90;;;;;;5112948;28;19967;-65
2023/04/02 04:51:00;;;;;;;;;;;1.90;99.90;;;;;;5112789;28;19975;-66
2023/04/02 04:53:27;;;;;;;;;;;1.10;99.90;;;;;;5112454;28;19967;-66
2023/04/02 04:55:58;;;;;;;;;;;1.00;99.90;;;;;;5112776;28;19969;-67
2023/04/02 04:58:32;;;;;;;;;;;1.00;99.90;;;;;;5112383;28;19924;-66
2023/04/02 05:01:04;;;;;;;;;;;1.00;99.90;;;;;;5094430;28;19923;-66
2023/04/02 05:03:48;;;;;;;;;;;1.00;99.90;;;;;;5112165;28;19928;-68
2023/04/02 05:06:29;;;;;;;;;;;1.00;99.90;;;;;;5112036;28;19924;-66
2023/04/02 05:08:56;;;;;;;;;;;0.90;99.90;;;;;;5094542;28;19927;-67
2023/04/02 05:11:30;;;;;;;;;;;0.90;99.90;;;;;;5111863;28;20357;-68
2023/04/02 05:13:59;;;;;;;;;;;0.90;99.90;;;;;;5111863;28;19970;-68
2023/04/02 05:16:27;;;;;;;;;;;0.90;99.90;;;;;;5111905;28;19986;-66
2023/04/02 05:18:53;;;;;;;;;;;0.90;99.90;;;;;;5112418;28;19924;-67
2023/04/02 05:21:22;;;;;;;;;;;0.90;99.90;;;;;;5112149;28;19976;-66
2023/04/02 05:23:55;;;;;;;;;;;0.90;99.90;;;;;;5112192;28;19966;-66
2023/04/02 05:26:28;;;;;;;;;;;1.00;99.90;;;;;;5111860;28;20304;-66
2023/04/02 05:28:54;;;;;;;;;;;1.00;99.90;;;;;;5112348;28;20277;-66
2023/04/02 05:31:20;;;;;;;;;;;1.00;99.90;;;;;;5112015;28;19934;-66
2023/04/02 05:33:47;;;;;;;;;;;1.00;99.90;;;;;;5112010;28;20373;-67
2023/04/02 05:36:20;;;;;;;;;;;1.10;99.90;;;;;;5111675;28;19985;-67
2023/04/02 05:38:47;;;;;;;;;;;1.10;99.90;;;;;;5093987;28;19935;-67
2023/04/02 05:41:19;;;;;;;;;;;1.10;99.90;;;;;;5093254;28;19923;-68
2023/04/02 05:43:46;;;;;;;;;;;1.20;99.90;;;;;;5094208;28;19934;-65
2023/04/02 05:46:22;;;;;;;;;;;1.20;99.90;;;;;;5094275;28;19930;-72
2023/04/02 05:48:50;;;;;;;;;;;1.30;99.90;;;;;;5112192;28;19935;-66
2023/04/02 05:51:19;;;;;;;;;;;1.40;99.90;;;;;;5111908;28;19928;-67
2023/04/02 05:53:47;;;;;;;;;;;2.00;99.90;;;;;;5111941;28;19967;-67
2023/04/02 05:56:16;;;;;;;;;;;2.70;99.90;;;;;;5111982;28;19927;-73
2023/04/02 05:58:53;;;;;;;;;;;3.50;99.90;;;;;;5112107;28;19938;-66
2023/04/02 06:01:32;;;;;;;;;;;3.90;99.90;;;;;;5094015;28;19976;-67
2023/04/02 06:04:16;;;;;;;;;;;4.20;99.90;;;;;;5111978;28;19928;-66
2023/04/02 06:06:44;;;;;;;;;;;4.30;99.90;;;;;;5093686;28;20345;-66
2023/04/02 06:09:14;;;;;;;;;;;4.10;99.90;;;;;;5094048;28;19924;-66
2023/04/02 06:11:44;;;;;;;;;;;3.70;99.90;;;;;;5111837;28;19950;-66
2023/04/02 06:14:13;;;;;;;;;;;3.40;99.90;;;;;;5112094;28;19980;-67
2023/04/02 06:16:39;;;;;;;;;;;3.20;99.90;;;;;;5111005;28;19931;-66
2023/04/02 06:19:07;;;;;;;;;;;3.00;99.90;;;;;;5111945;28;19923;-66
2023/04/02 06:21:32;;;;;;;;;;;2.90;99.90;;;;;;5111625;28;19924;-66
2023/04/02 06:24:01;;;;;;;;;;;2.90;99.90;;;;;;5111937;28;20373;-65
2023/04/02 06:26:26;;;;;;;;;;;2.90;99.90;;;;;;5078141;28;20285;-65
2023/04/02 06:28:55;;;;;;;;;;;2.90;99.90;;;;;;5097696;28;20019;-66
2023/04/02 06:31:24;;;;;;;;;;;2.90;99.90;;;;;;5080496;28;19924;-68
2023/04/02 06:33:51;;;;;;;;;;;3.20;99.90;;;;;;5097417;28;20303;-66
2023/04/02 06:36:18;;;;;;;;;;;3.50;99.90;;;;;;5115494;28;19924;-67
2023/04/02 06:38:43;;;;;;;;;;;4.00;99.90;;;;;;5115193;28;19977;-65
2023/04/02 06:41:13;;;;;;;;;;;4.30;99.90;;;;;;5115474;28;20327;-69
2023/04/02 06:43:45;;;;;;;;;;;4.70;99.90;;;;;;5115031;28;19923;-70
2023/04/02 06:46:14;;;;;;;;;;;5.00;99.90;;;;;;5097110;28;20249;-70
2023/04/02 06:48:40;;;;;;;;;;;5.40;99.90;;;;;;5114906;28;19928;-70
2023/04/02 06:51:07;;;;;;;;;;;5.80;99.90;;;;;;5097179;28;19930;-70
2023/04/02 06:53:35;;;;;;;;;;;5.90;99.90;;;;;;5114939;28;19924;-71
2023/04/02 06:56:09;;;;;;;;;;;6.00;99.90;;;;;;5097012;28;20421;-71
2023/04/02 06:58:35;;;;;;;;;;;6.10;99.90;;;;;;5115025;28;19924;-72
2023/04/02 07:01:00;;;;;;;;;;;6.00;99.90;;;;;;5115146;28;20346;-70
2023/04/02 07:03:28;;;;;;;;;;;6.10;99.90;;;;;;5114769;28;19968;-71
2023/04/02 07:05:53;;;;;;;;;;;6.30;99.90;;;;;;5115267;28;19928;-71
2023/04/02 07:08:19;;;;;;;;;;;6.40;99.90;;;;;;5096985;28;20373;-71
2023/04/02 07:10:45;;;;;;;;;;;6.70;99.90;;;;;;5096610;28;20307;-71
2023/04/02 07:13:14;;;;;;;;;;;7.00;99.90;;;;;;5114864;28;19924;-71
2023/04/02 07:15:39;;;;;;;;;;;7.40;99.90;;;;;;5092569;28;19924;-71
2023/04/02 07:18:14;;;;;;;;;;;7.70;99.90;;;;;;5092320;28;21333;-72
2023/04/02 07:20:40;;;;;;;;;;;7.80;99.90;;;;;;5093880;28;20389;-71
2023/04/02 07:23:07;;;;;;;;;;;7.30;99.90;;;;;;5094717;28;19953;-72
2023/04/02 07:25:32;;;;;;;;;;;7.00;99.90;;;;;;5093943;28;19924;-71
2023/04/02 07:27:58;;;;;;;;;;;6.60;99.90;;;;;;5093292;28;19924;-70
2023/04/02 07:30:23;;;;;;;;;;;6.30;99.90;;;;;;5093305;28;19924;-71
2023/04/02 07:32:49;;;;;;;;;;;6.00;99.90;;;;;;5093632;28;19928;-70
2023/04/02 07:35:15;;;;;;;;;;;5.90;99.90;;;;;;5092905;28;19947;-70
2023/04/02 07:37:40;;;;;;;;;;;6.60;99.90;;;;;;5058415;28;19974;-70
2023/04/02 07:40:14;;;;;;;;;;;6.10;99.90;;;;;;5093991;28;20329;-70
2023/04/02 07:42:39;;;;;;;;;;;6.40;99.90;;;;;;5092506;28;19932;-71
2023/04/02 07:45:05;;;;;;;;;;;6.70;99.90;;;;;;5075752;28;19924;-71
2023/04/02 07:47:31;;;;;;;;;;;7.00;99.90;;;;;;5093363;28;20029;-70
2023/04/02 07:49:57;;;;;;;;;;;7.20;99.90;;;;;;5093970;28;19924;-70
2023/04/02 07:52:22;;;;;;;;;;;7.60;99.90;;;;;;5094405;28;19975;-68
2023/04/02 07:54:48;;;;;;;;;;;7.80;99.90;;;;;;5091734;28;19924;-75
2023/04/02 07:57:13;;;;;;;;;;;8.20;99.90;;;;;;5093215;28;19963;-70
2023/04/02 07:59:39;;;;;;;;;;;8.50;99.90;;;;;;5092894;28;19928;-70
2023/04/02 08:02:05;;;;;;;;;;;8.80;99.90;;;;;;5092162;28;20296;-70
2023/04/02 08:04:31;;;;;;;;;;;8.80;99.90;;;;;;5093124;28;19928;-75
2023/04/02 08:06:56;;;;;;;;;;;9.00;99.90;;;;;;5093277;28;19931;-70
2023/04/02 08:09:22;;;;;;;;;;;9.00;99.90;;;;;;5093622;28;19943;-69
2023/04/02 08:11:47;;;;;;;;;;;8.90;99.90;;;;;;5091968;28;19928;-68
2023/04/02 08:14:13;;;;;;;;;;;9.00;99.90;;;;;;5093068;28;19927;-70
2023/04/02 08:16:57;;;;;;;;;;;9.50;99.90;;;;;;5090845;28;19939;-69
2023/04/02 08:19:22;;;;;;;;;;;10.50;99.90;;;;;;5093209;28;19939;-70
2023/04/02 08:21:50;;;;;;;;;;;11.00;99.90;;;;;;5092832;28;19947;-69
2023/04/02 08:24:18;;;;;;;;;;;11.50;99.90;;;;;;5093060;28;19931;-70
2023/04/02 08:26:44;;;;;;;;;;;11.80;99.90;;;;;;5092516;28;20040;-70
2023/04/02 08:29:10;;;;;;;;;;;12.20;99.90;;;;;;5092999;28;20375;-69
2023/04/02 08:31:36;;;;;;;;;;;12.40;99.90;;;;;;5092416;28;19978;-76
2023/04/02 08:34:02;;;;;;;;;;;12.90;99.90;;;;;;5092603;28;19924;-70
2023/04/02 08:36:29;;;;;;;;;;;12.80;99.90;;;;;;5092657;28;19924;-69
2023/04/02 08:38:55;;;;;;;;;;;12.80;99.90;;;;;;5091335;28;20407;-69
2023/04/02 08:41:26;;;;;;;;;;;12.70;99.90;;;;;;5091734;28;19925;-70
2023/04/02 08:43:51;;;;;;;;;;;12.60;99.50;;;;;;5091367;28;19982;-69
2023/04/02 08:46:27;;;;;;;;;;;12.60;99.90;;;;;;5074630;28;19968;-69
2023/04/02 08:48:54;;;;;;;;;;;12.40;99.90;;;;;;5091448;28;19924;-68
2023/04/02 08:51:40;;;;;;;;;;;12.10;99.90;;;;;;5091329;28;19928;-69
2023/04/02 08:54:26;;;;;;;;;;;11.90;99.90;;;;;;5090672;28;20006;-68
2023/04/02 08:56:55;;;;;;;;;;;12.20;99.90;;;;;;5091087;28;19923;-70
2023/04/02 08:59:21;;;;;;;;;;;12.80;99.90;;;;;;5091504;28;19931;-69
2023/04/02 09:01:52;;;;;;;;;;;13.10;98.70;;;;;;5092111;28;20331;-69
2023/04/02 09:04:23;;;;;;;;;;;13.00;99.10;;;;;;5091434;28;19975;-69
2023/04/02 09:06:51;;;;;;;;;;;13.10;98.30;;;;;;5092062;28;19936;-69
2023/04/02 09:09:17;;;;;;;;;;;13.10;99.10;;;;;;5092388;28;19935;-67
2023/04/02 09:11:52;;;;;;;;;;;13.20;97.50;;;;;;5092059;28;19924;-68
2023/04/02 09:14:19;;;;;;;;;;;12.90;97.20;;;;;;5092258;28;19931;-69
2023/04/02 09:16:45;;;;;;;;;;;12.70;99.90;;;;;;5105559;28;20376;-68
2023/04/02 09:19:36;;;;;;;;;;;12.70;98.40;;;;;;5112356;28;19924;-68
2023/04/02 09:22:07;;;;;;;;;;;12.40;97.60;;;;;;5072405;28;19948;-68
2023/04/02 09:24:34;;;;;;;;;;;12.40;98.20;;;;;;5094410;28;20024;-69
2023/04/02 09:26:59;;;;;;;;;;;12.20;98.20;;;;;;5112141;28;19935;-71
2023/04/02 09:29:36;;;;;;;;;;;11.70;99.30;;;;;;5111755;28;20376;-68
2023/04/02 09:32:11;;;;;;;;;;;11.20;99.70;;;;;;5112372;28;19988;-69
2023/04/02 09:34:37;;;;;;;;;;;10.70;99.50;;;;;;5111936;28;19923;-68
2023/04/02 09:37:07;;;;;;;;;;;10.40;99.90;;;;;;5112141;28;19932;-68
2023/04/02 09:39:34;;;;;;;;;;;10.10;99.90;;;;;;5112206;28;20364;-69
2023/04/02 09:42:04;;;;;;;;;;;9.90;99.90;;;;;;5093725;28;19950;-69
2023/04/02 09:44:30;;;;;;;;;;;9.60;99.90;;;;;;5112105;28;20026;-70
2023/04/02 09:47:02;;;;;;;;;;;9.50;99.90;;;;;;5093870;28;20444;-67
2023/04/02 09:49:38;;;;;;;;;;;9.50;99.90;;;;;;5112141;28;20026;-66
2023/04/02 09:52:25;;;;;;;;;;;9.50;99.90;;;;;;5093699;28;19957;-65
2023/04/02 09:55:10;;;;;;;;;;;9.50;99.90;;;;;;5093263;28;19970;-65
2023/04/02 09:57:37;;;;;;;;;;;9.50;99.90;;;;;;5094090;28;19970;-68
2023/04/02 10:00:11;;;;;;;;;;;9.30;99.90;;;;;;5112362;28;20391;-66
2023/04/02 10:02:37;;;;;;;;;;;9.20;99.90;;;;;;5098197;28;19973;-65
2023/04/02 10:05:10;;;;;;;;;;;9.10;99.90;;;;;;5097684;28;19924;-67
2023/04/02 10:07:40;;;;;;;;;;;9.10;99.90;;;;;;5116112;28;19963;-66
2023/04/02 10:10:24;;;;;;;;;;;9.00;99.90;;;;;;5115680;28;20226;-67
2023/04/02 10:12:57;;;;;;;;;;;9.00;99.90;;;;;;5115321;28;20461;-72
2023/04/02 10:15:29;;;;;;;;;;;9.00;99.90;;;;;;5115594;28;19934;-67
2023/04/02 10:18:01;;;;;;;;;;;9.00;99.90;;;;;;5097579;28;20507;-67
2023/04/02 10:20:28;;;;;;;;;;;8.90;99.90;;;;;;5097161;28;19963;-66
2023/04/02 10:22:54;;;;;;;;;;;8.90;99.90;;;;;;5096705;28;19969;-65
2023/04/02 10:25:22;;;;;;;;;;;8.90;99.90;;;;;;5115489;28;19932;-66
2023/04/02 10:27:52;;;;;;;;;;;8.90;99.90;;;;;;5115578;28;19924;-65
2023/04/02 10:30:36;;;;;;;;;;;8.80;99.90;;;;;;5115512;28;20304;-65
2023/04/02 10:33:21;;;;;;;;;;;8.70;99.90;;;;;;5096802;28;19931;-65
2023/04/02 10:35:46;;;;;;;;;;;8.70;99.90;;;;;;5115513;28;19930;-65
2023/04/02 10:38:18;;;;;;;;;;;8.70;99.90;;;;;;5114973;28;19920;-68
2023/04/02 10:40:48;;;;;;;;;;;8.80;99.90;;;;;;5080485;28;19923;-67
2023/04/02 10:43:36;;;;;;;;;;;8.80;99.90;;;;;;5096611;28;19924;-69
2023/04/02 10:46:02;;;;;;;;;;;8.80;99.90;;;;;;5066075;28;20381;-69
2023/04/02 10:48:52;;;;;;;;;;;8.90;99.90;;;;;;5115443;28;19931;-68
2023/04/02 10:51:21;;;;;;;;;;;8.90;99.90;;;;;;5096812;28;19928;-69
2023/04/02 10:53:55;;;;;;;;;;;8.90;99.90;;;;;;5097044;28;19953;-69
2023/04/02 10:56:22;;;;;;;;;;;8.90;99.90;;;;;;5096941;28;19969;-69
2023/04/02 10:58:52;;;;;;;;;;;9.00;99.90;;;;;;5115521;28;19930;-71
2023/04/02 11:01:23;;;;;;;;;;;8.90;99.90;;;;;;5114651;28;19924;-67
2023/04/02 11:03:52;;;;;;;;;;;8.90;99.90;;;;;;5096767;28;19930;-65
2023/04/02 11:06:27;;;;;;;;;;;8.90;99.90;;;;;;5079480;28;20266;-67
2023/04/02 11:09:01;;;;;;;;;;;9.00;99.90;;;;;;5114940;28;19927;-67
2023/04/02 11:11:30;;;;;;;;;;;9.00;99.90;;;;;;5114282;28;19982;-66
2023/04/02 11:14:01;;;;;;;;;;;8.90;99.90;;;;;;5096474;28;20077;-66
2023/04/02 11:16:27;;;;;;;;;;;9.00;99.90;;;;;;5079317;28;20389;-67
2023/04/02 11:19:21;;;;;;;;;;;9.00;99.90;;;;;;5114731;28;19976;-67
2023/04/02 11:21:54;;;;;;;;;;;9.10;99.90;;;;;;5114870;28;19924;-66
2023/04/02 11:24:23;;;;;;;;;;;9.10;99.90;;;;;;5096052;28;19930;-67
2023/04/02 11:26:49;;;;;;;;;;;9.10;99.90;;;;;;5114697;28;20327;-66
2023/04/02 11:29:20;;;;;;;;;;;9.10;99.90;;;;;;5114061;28;19935;-67
2023/04/02 11:31:46;;;;;;;;;;;9.20;99.90;;;;;;5096223;28;20282;-67
2023/04/02 11:34:31;;;;;;;;;;;9.30;99.90;;;;;;5114121;28;20014;-67
2023/04/02 11:36:58;;;;;;;;;;;9.20;99.90;;;;;;5095121;28;19931;-69
2023/04/02 11:39:42;;;;;;;;;;;9.20;99.90;;;;;;5113964;28;19924;-69
2023/04/02 11:42:21;;;;;;;;;;;9.20;99.90;;;;;;5096086;28;19924;-68
2023/04/02 11:44:46;;;;;;;;;;;9.20;99.90;;;;;;5114136;28;19924;-69
2023/04/02 11:47:13;;;;;;;;;;;9.10;99.90;;;;;;5095746;28;19924;-68
2023/04/02 11:49:55;;;;;;;;;;;9.10;99.90;;;;;;5114150;28;20395;-68
2023/04/02 11:52:22;;;;;;;;;;;9.10;99.90;;;;;;5113778;28;19924;-68
2023/04/02 11:54:59;;;;;;;;;;;9.00;99.90;;;;;;5095789;28;19931;-67
2023/04/02 11:57:36;;;;;;;;;;;9.10;99.90;;;;;;5113679;28;19977;-68
2023/04/02 12:00:12;;;;;;;;;;;9.10;99.90;;;;;;5113615;28;20377;-68
2023/04/02 12:02:58;;;;;;;;;;;9.10;99.90;;;;;;5094949;28;19924;-66
2023/04/02 12:05:35;;;;;;;;;;;9.20;99.90;;;;;;5113146;28;20579;-67
2023/04/02 12:08:21;;;;;;;;;;;9.20;99.90;;;;;;5113206;28;19924;-67
2023/04/02 12:10:55;;;;;;;;;;;9.30;99.90;;;;;;5113810;28;19936;-66
2023/04/02 12:13:57;;;;;;;;;;;9.40;99.90;;;;;;5078458;28;19923;-66
2023/04/02 12:16:23;;;;;;;;;;;9.30;99.90;;;;;;4993753;28;20283;-66
2023/04/02 12:18:52;;;;;;;;;;;9.30;99.90;;;;;;5079326;28;19934;-66
2023/04/02 12:21:20;;;;;;;;;;;9.30;99.90;;;;;;5113309;28;19924;-66
2023/04/02 12:23:46;;;;;;;;;;;9.20;99.90;;;;;;5113432;28;19927;-66
2023/04/02 12:26:45;;;;;;;;;;;9.10;99.90;;;;;;5095217;28;19924;-66
2023/04/02 12:29:13;;;;;;;;;;;9.20;99.90;;;;;;5056859;28;19923;-66
2023/04/02 12:31:46;;;;;;;;;;;9.30;99.90;;;;;;5113725;28;19928;-66
2023/04/02 12:34:15;;;;;;;;;;;9.30;99.90;;;;;;5113185;28;20006;-66
2023/04/02 12:37:04;;;;;;;;;;;9.30;99.90;;;;;;5113123;28;19927;-66
2023/04/02 12:39:30;;;;;;;;;;;9.30;99.90;;;;;;5113185;28;19927;-67
2023/04/02 12:41:56;;;;;;;;;;;9.40;99.90;;;;;;5113483;28;19924;-65
2023/04/02 12:44:23;;;;;;;;;;;9.40;99.90;;;;;;5095022;28;20384;-66
2023/04/02 12:53:38;;;;;;;;;;;9.40;99.90;;;;;;5112853;28;19918;-68
2023/04/02 12:56:04;;;;;;;;;;;9.40;99.90;;;;;;5112428;28;20391;-67
2023/04/02 12:58:38;;;;;;;;;;;9.40;99.90;;;;;;5113032;28;19924;-67
2023/04/02 13:01:12;;;;;;;;;;;9.30;99.90;;;;;;5094869;28;19923;-67
2023/04/02 13:03:37;;;;;;;;;;;9.20;99.90;;;;;;5094470;28;20365;-66
2023/04/02 13:06:10;;;;;;;;;;;9.20;99.90;;;;;;5094911;28;19980;-67
2023/04/02 13:08:39;;;;;;;;;;;9.10;99.90;;;;;;5112481;28;19930;-69
2023/04/02 13:11:05;;;;;;;;;;;9.10;99.90;;;;;;5112702;28;19924;-67
2023/04/02 13:13:35;;;;;;;;;;;9.20;99.90;;;;;;5077598;28;19947;-68
2023/04/02 13:16:03;;;;;;;;;;;9.10;99.90;;;;;;5077283;28;20014;-67
2023/04/02 13:18:29;;;;;;;;;;;9.10;99.90;;;;;;5112550;28;19923;-66
2023/04/02 13:27:39;;;;;;;;;;;9.10;99.90;;;;;;5338397;22;19935;-67
2023/04/02 13:30:09;;;;;;;;;;;9.10;99.90;;;;;;5053723;28;20324;-69
2023/04/02 13:32:35;;;;;;;;;;;9.00;99.90;;;;;;5073564;28;20242;-67
2023/04/02 13:35:00;;;;;;;;;;;8.90;99.90;;;;;;5073430;28;20232;-69
2023/04/02 13:37:26;;;;;;;;;;;8.90;99.90;;;;;;5074054;28;19927;-68
2023/04/02 13:39:51;;;;;;;;;;;8.90;99.90;;;;;;5092020;28;20003;-69
2023/04/02 13:42:17;;;;;;;;;;;8.90;99.90;;;;;;5073722;28;19924;-69
2023/04/02 13:44:42;;;;;;;;;;;9.00;99.90;;;;;;5074235;28;19924;-69
2023/04/02 13:47:13;;;;;;;;;;;9.00;99.90;;;;;;5091929;28;20010;-68
2023/04/02 13:49:38;;;;;;;;;;;9.10;99.90;;;;;;5073992;28;19931;-68
2023/04/02 13:52:06;;;;;;;;;;;9.10;99.90;;;;;;5091841;28;19924;-66
2023/04/02 13:54:33;;;;;;;;;;;9.10;99.90;;;;;;5074153;28;19931;-68
2023/04/02 13:56:59;;;;;;;;;;;9.10;99.90;;;;;;5074036;28;19924;-73
2023/04/02 13:59:25;;;;;;;;;;;9.00;99.90;;;;;;5074206;28;19935;-69
2023/04/02 14:01:53;;;;;;;;;;;9.00;99.90;;;;;;5073996;28;19924;-68
2023/04/02 14:04:22;;;;;;;;;;;8.90;99.90;;;;;;5073820;28;20207;-68
2023/04/02 14:07:06;;;;;;;;;;;8.90;99.90;;;;;;5056978;28;19924;-68
2023/04/02 14:09:46;;;;;;;;;;;8.90;99.90;;;;;;5074114;28;20433;-67
2023/04/02 14:12:30;;;;;;;;;;;8.90;99.90;;;;;;5073844;28;20247;-68
2023/04/02 14:15:02;;;;;;;;;;;8.90;99.90;;;;;;5073951;28;20312;-69
2023/04/02 14:17:31;;;;;;;;;;;9.00;99.90;;;;;;5057160;28;19955;-67
2023/04/02 14:20:16;;;;;;;;;;;8.90;99.90;;;;;;5074246;28;20332;-67
2023/04/02 14:22:45;;;;;;;;;;;9.00;99.90;;;;;;5073973;28;19973;-68
2023/04/02 14:25:22;;;;;;;;;;;9.00;99.90;;;;;;5057074;28;19931;-67
2023/04/02 14:28:03;;;;;;;;;;;9.00;99.90;;;;;;5073535;28;19924;-69
2023/04/02 14:30:43;;;;;;;;;;;9.00;99.90;;;;;;5074033;28;20019;-67
2023/04/02 14:33:28;;;;;;;;;;;9.00;99.90;;;;;;5091783;28;19924;-67
2023/04/02 14:35:58;;;;;;;;;;;8.90;99.90;;;;;;5091611;28;19979;-68
2023/04/02 14:38:28;;;;;;;;;;;8.90;99.90;;;;;;5073239;28;19924;-67
2023/04/02 14:40:54;;;;;;;;;;;9.00;99.90;;;;;;5091706;28;19924;-68
2023/04/02 14:43:23;;;;;;;;;;;9.00;99.90;;;;;;5073466;28;19946;-66
2023/04/02 14:46:02;;;;;;;;;;;9.00;99.90;;;;;;5073491;28;19924;-68
2023/04/02 14:48:46;;;;;;;;;;;9.10;99.90;;;;;;5076206;28;20044;-69
2023/04/02 14:51:16;;;;;;;;;;;9.10;99.90;;;;;;5059783;28;19970;-68
2023/04/02 14:54:03;;;;;;;;;;;9.10;99.90;;;;;;5077043;28;19973;-67
2023/04/02 14:56:31;;;;;;;;;;;9.00;99.90;;;;;;5094525;28;19928;-68
2023/04/02 14:59:05;;;;;;;;;;;9.00;99.90;;;;;;5076841;28;20050;-69
2023/04/02 15:01:35;;;;;;;;;;;8.90;99.90;;;;;;5076912;28;20022;-68
2023/04/02 15:04:07;;;;;;;;;;;8.90;99.90;;;;;;5076486;28;19924;-68